Time;durP1;ratioP1;P1;durP2;ratioP2;P2;SDS_P1;SDS_P2;PMS_P1;PMS_P2;Temp;Humidity;BMP_temperature;BMP_pressure;BME280_temperature;BME280_humidity;BME280_pressure;Samples;Min_cycle;Max_cycle;Signal;HPM_P1;HPM_P2
2022/05/05 00:01:43;;;;;;;;;19.75;15.00;;;;;16.75;54.20;101842.22;5061507;28;45292;-67
2022/05/05 00:04:09;;;;;;;;;19.50;19.00;;;;;16.71;54.38;101841.56;5061782;28;45334;-67
2022/05/05 00:06:36;;;;;;;;;19.25;17.00;;;;;16.71;54.44;101846.03;5061527;28;45429;-68
2022/05/05 00:09:02;;;;;;;;;15.50;12.50;;;;;16.71;54.33;101838.06;5061217;28;46107;-68
2022/05/05 00:14:31;;;;;;;;;13.00;11.00;;;;;16.71;54.26;101846.03;5038912;28;45337;-68
2022/05/05 00:17:03;;;;;;;;;19.25;15.25;;;;;16.69;54.65;101847.94;5057358;28;45315;-68
2022/05/05 00:19:31;;;;;;;;;16.75;15.75;;;;;16.66;54.72;101845.44;5061314;28;45472;-68
2022/05/05 00:21:57;;;;;;;;;20.00;13.50;;;;;16.61;54.67;101844.94;5061305;28;45296;-68
2022/05/05 00:24:23;;;;;;;;;15.75;13.00;;;;;16.58;54.72;101855.75;5061294;28;45325;-67
2022/05/05 00:26:49;;;;;;;;;15.50;13.75;;;;;16.52;54.56;101846.41;5061090;28;45461;-69
2022/05/05 00:29:15;;;;;;;;;13.75;13.25;;;;;16.50;54.70;101848.28;5060779;28;45264;-68
2022/05/05 00:31:42;;;;;;;;;13.50;13.50;;;;;16.45;54.62;101839.78;5061241;28;45165;-68
2022/05/05 00:34:08;;;;;;;;;14.00;12.75;;;;;16.45;54.60;101842.44;5061233;28;45222;-68
2022/05/05 00:36:34;;;;;;;;;14.50;12.00;;;;;16.45;54.62;101845.09;5061291;28;45348;-68
2022/05/05 00:38:59;;;;;;;;;12.75;12.75;;;;;16.45;54.79;101842.44;5059427;28;45371;-68
2022/05/05 00:41:25;;;;;;;;;13.25;13.25;;;;;16.42;54.54;101848.78;5061080;28;45294;-68
2022/05/05 00:43:51;;;;;;;;;13.50;12.75;;;;;16.36;54.58;101851.88;5060887;28;45490;-68
2022/05/05 00:46:17;;;;;;;;;13.50;11.25;;;;;16.30;54.65;101848.75;5061169;28;45438;-68
2022/05/05 00:48:43;;;;;;;;;15.00;11.50;;;;;16.26;54.96;101842.78;5060738;28;46023;-68
2022/05/05 00:51:09;;;;;;;;;12.00;10.25;;;;;16.25;54.88;101842.88;5060900;28;45238;-68
2022/05/05 00:53:35;;;;;;;;;12.75;11.50;;;;;16.23;54.98;101858.09;5060858;28;45291;-68
2022/05/05 00:56:11;;;;;;;;;12.25;10.75;;;;;16.18;55.05;101845.94;5061118;28;45265;-68
2022/05/05 00:58:39;;;;;;;;;13.50;12.00;;;;;16.13;54.98;101844.53;5060437;28;45509;-68
2022/05/05 01:01:05;;;;;;;;;12.50;11.50;;;;;16.05;55.19;101845.03;5061576;28;45462;-68
2022/05/05 01:03:35;;;;;;;;;14.50;11.75;;;;;16.01;55.27;101846.19;5061002;28;45386;-68
2022/05/05 01:06:08;;;;;;;;;12.25;12.25;;;;;16.00;55.06;101847.13;5060852;28;45274;-68
2022/05/05 01:08:34;;;;;;;;;13.00;10.75;;;;;15.98;54.90;101848.19;5060528;28;46022;-68
2022/05/05 01:10:59;;;;;;;;;15.75;12.00;;;;;15.96;55.10;101860.69;5060637;28;45460;-68
2022/05/05 01:13:27;;;;;;;;;13.00;11.00;;;;;15.92;54.94;101849.44;5060660;28;45177;-68
2022/05/05 01:15:53;;;;;;;;;8.75;8.75;;;;;15.90;55.32;101849.53;5060802;28;45297;-68
2022/05/05 01:18:19;;;;;;;;;10.50;9.25;;;;;15.89;55.03;101846.97;5060747;28;45326;-68
2022/05/05 01:20:46;;;;;;;;;10.50;9.50;;;;;15.89;55.00;101846.97;5060427;28;45290;-68
2022/05/05 01:23:15;;;;;;;;;11.50;10.75;;;;;15.90;55.12;101854.84;5060741;28;45282;-68
2022/05/05 01:28:25;;;;;;;;;9.00;9.00;;;;;15.84;54.81;101849.06;5060178;28;45250;-68
2022/05/05 01:30:51;;;;;;;;;8.00;7.75;;;;;15.80;54.87;101850.19;5060333;28;45391;-68
2022/05/05 01:33:22;;;;;;;;;11.75;8.75;;;;;15.79;55.15;101849.34;5060690;28;45275;-68
2022/05/05 01:35:52;;;;;;;;;10.50;9.25;;;;;15.78;55.06;101852.97;5060474;28;45380;-68
2022/05/05 01:38:21;;;;;;;;;12.00;9.25;;;;;15.76;54.99;101851.34;5060446;28;46309;-68
2022/05/05 01:40:46;;;;;;;;;8.00;8.00;;;;;15.71;55.12;101850.78;5063566;28;45416;-68
2022/05/05 01:43:14;;;;;;;;;10.00;9.00;;;;;15.70;55.43;101846.44;5063793;28;45267;-67
2022/05/05 01:45:39;;;;;;;;;15.00;11.50;;;;;15.70;55.11;101841.13;5064071;28;45193;-68
2022/05/05 01:48:05;;;;;;;;;9.00;8.00;;;;;15.69;55.37;101844.72;5063964;28;45219;-67
2022/05/05 01:50:31;;;;;;;;;7.50;7.00;;;;;15.68;55.63;101840.38;5063646;28;45220;-67
2022/05/05 01:52:58;;;;;;;;;10.75;8.75;;;;;15.66;55.46;101845.78;5063899;28;45216;-68
2022/05/05 01:55:24;;;;;;;;;10.75;9.25;;;;;15.64;55.86;101837.06;5063545;28;45322;-68
2022/05/05 01:57:50;;;;;;;;;11.75;10.75;;;;;15.62;55.72;101845.09;5063870;28;45386;-67
2022/05/05 02:00:16;;;;;;;;;9.50;8.00;;;;;15.61;55.59;101842.53;5063729;28;45367;-67
2022/05/05 02:02:43;;;;;;;;;10.25;8.75;;;;;15.57;55.91;101851.63;5063787;28;45244;-68
2022/05/05 02:05:09;;;;;;;;;8.25;7.00;;;;;15.51;55.81;101854.66;5063721;28;45317;-67
2022/05/05 02:07:35;;;;;;;;;10.75;8.00;;;;;15.46;55.86;101857.59;5063320;28;46351;-67
2022/05/05 02:10:02;;;;;;;;;10.75;7.00;;;;;15.45;55.95;101855.03;5061878;28;45316;-68
2022/05/05 02:12:29;;;;;;;;;12.75;8.75;;;;;15.45;55.82;101857.69;5062211;28;45196;-67
2022/05/05 02:14:54;;;;;;;;;9.50;8.50;;;;;15.45;55.92;101857.69;5063396;28;45473;-67
2022/05/05 02:17:20;;;;;;;;;9.50;8.00;;;;;15.45;55.94;101855.91;5063316;28;45295;-67
2022/05/05 02:19:47;;;;;;;;;9.00;7.00;;;;;15.47;55.86;101853.13;5063239;28;45306;-67
2022/05/05 02:22:12;;;;;;;;;7.25;6.75;;;;;15.43;55.81;101847.19;5063558;28;45317;-67
2022/05/05 02:24:38;;;;;;;;;8.50;8.50;;;;;15.43;55.87;101849.84;5063388;28;45563;-67
2022/05/05 02:27:05;;;;;;;;;7.75;7.75;;;;;15.42;55.95;101841.97;5063089;28;45287;-67
2022/05/05 02:29:30;;;;;;;;;9.00;9.00;;;;;15.39;55.80;101845.66;5062925;28;45230;-67
2022/05/05 02:31:56;;;;;;;;;10.50;10.50;;;;;15.38;55.89;101849.25;5063090;28;45225;-67
2022/05/05 02:34:21;;;;;;;;;8.50;7.50;;;;;15.35;56.09;101845.00;5063253;28;45215;-67
2022/05/05 02:39:31;;;;;;;;;15.00;11.50;;;;;15.31;56.14;101838.16;5063154;28;45232;-67
2022/05/05 02:41:56;;;;;;;;;11.00;9.00;;;;;15.31;56.13;101839.97;5063039;28;45140;-68
2022/05/05 02:44:22;;;;;;;;;14.75;12.75;;;;;15.30;56.22;101852.38;5062997;28;45214;-67
2022/05/05 02:46:47;;;;;;;;;12.75;12.75;;;;;15.29;56.43;101841.88;5062700;28;45925;-67
2022/05/05 02:49:14;;;;;;;;;12.75;9.75;;;;;15.29;56.28;101839.19;5062850;28;45255;-67
2022/05/05 02:51:40;;;;;;;;;12.75;12.75;;;;;15.28;56.26;101843.66;5062677;28;45399;-67
2022/05/05 02:56:49;;;;;;;;;11.00;10.00;;;;;15.24;56.57;101843.94;5062671;28;45418;-67
2022/05/05 02:59:14;;;;;;;;;11.75;8.75;;;;;15.22;56.59;101846.69;5062450;28;45215;-68
2022/05/05 03:01:40;;;;;;;;;13.50;13.50;;;;;15.22;56.72;101844.03;5063223;28;45330;-68
2022/05/05 03:04:05;;;;;;;;;13.00;12.25;;;;;15.19;56.79;101844.22;5062716;28;45298;-68
2022/05/05 03:06:31;;;;;;;;;10.75;10.75;;;;;15.18;56.69;101849.63;5062377;28;46134;-68
2022/05/05 03:08:56;;;;;;;;;17.75;11.75;;;;;15.14;56.88;101841.00;5062370;28;45322;-68
2022/05/05 03:11:22;;;;;;;;;17.25;13.25;;;;;15.14;56.89;101842.78;5062406;28;45358;-69
2022/05/05 03:13:47;;;;;;;;;15.00;12.00;;;;;15.13;56.96;101849.06;5062455;28;45302;-68
2022/05/05 03:16:13;;;;;;;;;14.25;12.50;;;;;15.10;57.26;101836.84;5062242;28;46186;-68
2022/05/05 03:18:42;;;;;;;;;15.75;11.00;;;;;15.08;57.17;101839.56;5062280;28;45247;-68
2022/05/05 03:21:08;;;;;;;;;14.00;10.00;;;;;15.06;57.35;101844.09;5062463;28;45300;-68
2022/05/05 03:23:33;;;;;;;;;14.50;13.50;;;;;15.04;57.50;101839.84;5061170;28;45485;-68
2022/05/05 03:25:59;;;;;;;;;10.50;10.25;;;;;15.00;57.61;101838.31;5059807;28;45480;-68
2022/05/05 03:28:25;;;;;;;;;16.00;13.00;;;;;14.97;57.71;101847.31;5061597;28;45307;-70
2022/05/05 03:30:50;;;;;;;;;13.50;13.50;;;;;14.93;57.97;101842.28;5062132;28;45248;-68
2022/05/05 03:33:16;;;;;;;;;15.75;13.50;;;;;14.92;57.88;101841.44;5062335;28;45584;-68
2022/05/05 03:35:41;;;;;;;;;17.00;12.75;;;;;14.94;57.68;101846.66;5061907;28;45859;-68
2022/05/05 03:38:07;;;;;;;;;15.50;12.25;;;;;14.93;58.16;101852.88;5061951;28;45281;-68
2022/05/05 03:40:33;;;;;;;;;18.00;11.00;;;;;14.92;57.88;101854.69;5062085;28;45490;-67
2022/05/05 03:42:59;;;;;;;;;13.25;12.75;;;;;14.89;58.12;101854.88;5062107;28;45327;-68
2022/05/05 03:45:25;;;;;;;;;13.25;11.25;;;;;14.89;57.93;101854.88;5061752;28;46466;-68
2022/05/05 03:47:50;;;;;;;;;14.25;13.50;;;;;14.90;58.35;101851.28;5062245;28;45304;-68
2022/05/05 03:50:16;;;;;;;;;13.75;13.00;;;;;14.90;58.36;101853.09;5061949;28;45402;-68
2022/05/05 03:52:41;;;;;;;;;17.25;14.25;;;;;14.89;58.41;101848.72;5061889;28;45240;-68
2022/05/05 03:55:07;;;;;;;;;20.50;16.00;;;;;14.87;58.05;101851.47;5061393;28;45908;-68
2022/05/05 03:57:35;;;;;;;;;13.50;13.50;;;;;14.85;58.08;101857.78;5061792;28;45291;-68
2022/05/05 04:00:03;;;;;;;;;16.00;13.00;;;;;14.82;58.51;101855.34;5061929;28;45251;-68
2022/05/05 04:02:29;;;;;;;;;14.00;14.00;;;;;14.82;58.61;101852.69;5061372;28;45277;-68
2022/05/05 04:04:55;;;;;;;;;12.50;12.00;;;;;14.79;58.82;101853.72;5061441;28;46177;-67
2022/05/05 04:07:21;;;;;;;;;16.50;13.75;;;;;14.79;58.83;101856.38;5061546;28;45237;-68
2022/05/05 04:09:46;;;;;;;;;18.50;16.25;;;;;14.78;58.78;101862.63;5061486;28;45343;-68
2022/05/05 04:12:12;;;;;;;;;13.50;11.75;;;;;14.76;58.79;101857.41;5061517;28;45426;-67
2022/05/05 04:14:38;;;;;;;;;13.00;11.25;;;;;14.76;58.84;101859.19;5061223;28;46196;-68
2022/05/05 04:17:04;;;;;;;;;16.75;13.75;;;;;14.74;58.86;101861.94;5061395;28;45739;-67
2022/05/05 04:19:29;;;;;;;;;14.75;14.75;;;;;14.70;58.98;101864.88;5061442;28;45280;-68
2022/05/05 04:21:55;;;;;;;;;12.75;12.75;;;;;14.67;58.85;101868.56;5061597;28;45369;-67
2022/05/05 04:24:20;;;;;;;;;14.50;11.75;;;;;14.61;59.11;101871.56;5059961;28;45450;-67
2022/05/05 04:26:46;;;;;;;;;17.00;14.00;;;;;14.57;59.35;101866.53;5059949;28;45312;-68
2022/05/05 04:29:12;;;;;;;;;17.25;12.00;;;;;14.55;59.76;101871.09;5061101;28;45321;-68
2022/05/05 04:31:39;;;;;;;;;14.75;14.00;;;;;14.53;59.62;101876.44;5061381;28;45441;-68
2022/05/05 04:34:06;;;;;;;;;15.50;14.25;;;;;14.53;59.67;101868.50;5061043;28;45277;-69
2022/05/05 04:36:35;;;;;;;;;18.75;14.75;;;;;14.54;59.82;101877.34;5060030;28;45252;-68
2022/05/05 04:39:02;;;;;;;;;17.00;13.00;;;;;14.51;59.91;101873.88;5061109;28;45302;-69
2022/05/05 04:41:29;;;;;;;;;16.75;14.00;;;;;14.48;59.85;101876.72;5061153;28;45452;-68
2022/05/05 04:43:54;;;;;;;;;25.00;19.00;;;;;14.49;59.95;101881.09;5059304;28;46331;-69
2022/05/05 04:46:22;;;;;;;;;18.25;14.75;;;;;14.44;60.40;101876.94;5059807;28;45293;-67
2022/05/05 04:48:49;;;;;;;;;19.25;17.50;;;;;14.43;60.52;101884.06;5061044;28;45428;-68
2022/05/05 04:51:15;;;;;;;;;16.75;16.50;;;;;14.44;60.46;101887.56;5061192;28;45320;-69
2022/05/05 04:53:41;;;;;;;;;15.75;15.25;;;;;14.43;60.40;101885.84;5060431;28;45403;-67
2022/05/05 04:56:10;;;;;;;;;18.50;15.00;;;;;14.44;60.55;101890.19;5060913;28;45518;-68
2022/05/05 04:58:36;;;;;;;;;18.75;17.25;;;;;14.40;60.73;101891.34;5043055;28;45244;-68
2022/05/05 05:01:03;;;;;;;;;26.75;20.25;;;;;14.37;60.87;101896.78;5061538;28;45503;-69
2022/05/05 05:03:32;;;;;;;;;19.00;19.00;;;;;14.37;60.98;101897.66;5060654;28;45385;-69
2022/05/05 05:05:59;;;;;;;;;16.25;15.75;;;;;14.37;61.21;101899.44;5060914;28;45309;-68
2022/05/05 05:08:24;;;;;;;;;24.25;16.50;;;;;14.37;61.06;101896.78;5059657;28;45291;-68
2022/05/05 05:10:50;;;;;;;;;19.25;16.75;;;;;14.35;61.45;101899.53;5060973;28;45217;-68
2022/05/05 05:13:16;;;;;;;;;22.25;17.25;;;;;14.34;61.49;101900.47;5060270;28;45303;-68
2022/05/05 05:15:41;;;;;;;;;22.50;17.25;;;;;14.34;61.32;101908.44;5064277;28;45418;-68
2022/05/05 05:18:07;;;;;;;;;24.50;19.25;;;;;14.36;61.96;101905.69;5064401;28;45299;-68
2022/05/05 05:20:32;;;;;;;;;22.75;16.50;;;;;14.36;61.71;101911.00;5063048;28;45342;-68
2022/05/05 05:22:58;;;;;;;;;21.00;17.00;;;;;14.37;61.64;101913.56;5063936;28;46000;-69
2022/05/05 05:25:23;;;;;;;;;24.25;21.00;;;;;14.38;62.01;101911.78;5064194;28;45196;-69
2022/05/05 05:27:48;;;;;;;;;27.50;22.25;;;;;14.38;62.02;101914.44;5062745;28;45364;-68
2022/05/05 05:30:14;;;;;;;;;23.50;21.00;;;;;14.38;61.96;101920.59;5064383;28;45331;-69
2022/05/05 05:32:41;;;;;;;;;24.25;17.75;;;;;14.40;61.89;101915.19;5063691;28;45985;-68
2022/05/05 05:35:06;;;;;;;;;22.75;17.50;;;;;14.42;62.27;101916.81;5064078;28;45360;-68
2022/05/05 05:37:32;;;;;;;;;22.25;18.75;;;;;14.46;61.92;101925.50;5063905;28;45299;-68
2022/05/05 05:39:58;;;;;;;;;31.50;20.75;;;;;14.48;62.13;101926.25;5062715;28;45643;-68
2022/05/05 05:42:23;;;;;;;;;23.25;20.25;;;;;14.47;62.22;101924.53;5063592;28;45748;-68
2022/05/05 05:44:49;;;;;;;;;21.75;20.25;;;;;14.49;62.04;101922.66;5063568;28;45224;-69
2022/05/05 05:47:15;;;;;;;;;26.50;23.75;;;;;14.52;62.36;101925.13;5063843;28;45169;-68
2022/05/05 05:49:41;;;;;;;;;23.50;22.00;;;;;14.56;62.36;101928.47;5063852;28;45252;-69
2022/05/05 05:52:07;;;;;;;;;20.25;18.50;;;;;14.57;61.89;101931.03;5063195;28;45194;-68
2022/05/05 05:54:32;;;;;;;;;26.50;22.00;;;;;14.59;62.54;101926.47;5063689;28;45409;-67
2022/05/05 05:56:58;;;;;;;;;29.00;24.00;;;;;14.59;62.29;101934.44;5063477;28;45218;-68
2022/05/05 05:59:23;;;;;;;;;23.00;20.00;;;;;14.61;62.42;101929.91;5063559;28;45318;-68
2022/05/05 06:04:33;;;;;;;;;30.75;24.75;;;;;14.63;62.52;101917.44;5064091;28;45501;-66
2022/05/05 06:06:59;;;;;;;;;22.50;18.75;;;;;14.65;62.67;101933.25;5063667;28;45448;-68
2022/05/05 06:09:25;;;;;;;;;28.50;21.75;;;;;14.65;62.44;101939.41;5063324;28;45270;-68
2022/05/05 06:11:50;;;;;;;;;29.00;20.25;;;;;14.68;62.50;101936.56;5063263;28;45372;-68
2022/05/05 06:14:16;;;;;;;;;27.00;24.25;;;;;14.70;62.64;101941.81;5063096;28;45426;-68
2022/05/05 06:16:41;;;;;;;;;29.00;23.25;;;;;14.71;62.71;101939.06;5063314;28;45443;-68
2022/05/05 06:19:07;;;;;;;;;35.25;23.75;;;;;14.73;62.82;101949.56;5063146;28;45435;-68
2022/05/05 06:21:32;;;;;;;;;30.25;21.75;;;;;14.74;62.57;101943.31;5062915;28;45680;-68
2022/05/05 06:23:57;;;;;;;;;23.00;19.75;;;;;14.73;62.83;101945.13;5062611;28;45322;-68
2022/05/05 06:26:23;;;;;;;;;23.25;22.00;;;;;14.75;62.75;101945.03;5062512;28;45372;-68
2022/05/05 06:28:49;;;;;;;;;25.00;21.00;;;;;14.77;63.05;101948.44;5063012;28;45449;-68
2022/05/05 06:31:16;;;;;;;;;24.50;20.75;;;;;14.75;62.74;101945.88;5062957;28;45349;-68
2022/05/05 06:33:43;;;;;;;;;23.75;22.00;;;;;14.75;62.63;101945.88;5062900;28;45350;-67
2022/05/05 06:36:08;;;;;;;;;26.25;22.00;;;;;14.78;62.89;101945.72;5063271;28;45280;-68
2022/05/05 06:38:34;;;;;;;;;27.75;26.75;;;;;14.78;63.16;101953.69;5062964;28;45313;-67
2022/05/05 06:41:00;;;;;;;;;26.25;26.25;;;;;14.81;63.17;101952.63;5062508;28;45350;-68
2022/05/05 06:43:26;;;;;;;;;38.75;27.50;;;;;14.83;62.99;101956.06;5062558;28;45338;-69
2022/05/05 06:45:52;;;;;;;;;29.25;24.75;;;;;14.85;63.12;101961.25;5062768;28;45362;-69
2022/05/05 06:48:18;;;;;;;;;42.00;31.50;;;;;14.87;63.10;101959.41;5062514;28;45321;-67
2022/05/05 06:50:43;;;;;;;;;25.50;25.00;;;;;14.87;62.96;101965.56;5062582;28;46276;-68
2022/05/05 06:53:09;;;;;;;;;34.50;28.25;;;;;14.89;63.10;101968.13;5062374;28;45248;-67
2022/05/05 06:55:34;;;;;;;;;37.25;30.00;;;;;14.87;63.05;101976.16;5062741;28;45512;-68
2022/05/05 06:58:00;;;;;;;;;34.50;29.00;;;;;14.89;63.32;101968.97;5062618;28;45259;-68
2022/05/05 07:01:51;;;;;;;;;30.75;24.50;;;;;14.94;63.28;101966.91;5062443;28;45155;-68
2022/05/05 07:03:11;;;;;;;;;29.00;26.25;;;;;14.99;63.17;101966.63;5062417;28;45306;-68
2022/05/05 07:05:36;;;;;;;;;33.00;28.25;;;;;15.01;63.09;101967.41;5062700;28;45272;-67
2022/05/05 07:08:02;;;;;;;;;34.50;26.50;;;;;15.02;63.50;101969.97;5062562;28;45451;-68
2022/05/05 07:13:12;;;;;;;;;30.75;23.25;;;;;15.08;63.13;101980.22;5061980;28;45359;-67
2022/05/05 07:15:38;;;;;;;;;29.25;24.00;;;;;15.10;63.36;101979.28;5062514;28;45185;-67
2022/05/05 07:18:04;;;;;;;;;29.50;26.75;;;;;15.12;63.39;101982.72;5062586;28;45367;-67
2022/05/05 07:20:30;;;;;;;;;31.25;28.00;;;;;15.13;63.45;101979.94;5061961;28;45496;-67
2022/05/05 07:22:56;;;;;;;;;26.50;23.50;;;;;15.14;63.18;101978.16;5062136;28;45476;-67
2022/05/05 07:25:22;;;;;;;;;29.00;25.00;;;;;15.17;63.21;101984.16;5062287;28;45357;-67
2022/05/05 07:27:48;;;;;;;;;28.25;20.50;;;;;15.18;63.28;101979.69;5061997;28;45307;-67
2022/05/05 07:30:14;;;;;;;;;27.75;25.25;;;;;15.19;63.05;101987.56;5062004;28;45615;-67
2022/05/05 07:32:40;;;;;;;;;29.00;22.25;;;;;15.20;63.26;101991.94;5062014;28;45369;-67
2022/05/05 07:35:06;;;;;;;;;31.25;25.00;;;;;15.21;62.92;101998.94;5062239;28;45442;-67
2022/05/05 07:37:32;;;;;;;;;32.00;26.50;;;;;15.23;63.20;101993.53;5061105;28;45279;-67
2022/05/05 07:39:58;;;;;;;;;29.50;23.50;;;;;15.31;63.04;102001.91;5061851;28;45212;-67
2022/05/05 07:42:24;;;;;;;;;29.25;25.50;;;;;15.39;62.86;102001.44;5061670;28;45398;-67
2022/05/05 07:44:49;;;;;;;;;30.50;25.75;;;;;15.47;62.77;101997.38;5061780;28;45403;-68
2022/05/05 07:47:15;;;;;;;;;29.00;26.00;;;;;15.52;62.64;101997.13;5061842;28;45255;-66
2022/05/05 07:49:40;;;;;;;;;25.75;21.00;;;;;15.66;62.11;101993.69;5061742;28;45292;-66
2022/05/05 07:52:06;;;;;;;;;26.75;22.50;;;;;15.69;61.38;101999.66;5061277;28;45307;-67
2022/05/05 07:54:35;;;;;;;;;27.50;25.25;;;;;15.70;61.51;102004.00;5061599;28;45474;-66
2022/05/05 07:57:01;;;;;;;;;28.75;24.25;;;;;15.77;61.57;102000.03;5061579;28;45165;-67
2022/05/05 07:59:27;;;;;;;;;29.75;24.50;;;;;15.87;61.27;102002.97;5061308;28;46151;-66
2022/05/05 08:01:53;;;;;;;;;22.25;19.25;;;;;15.93;61.00;102007.91;5061255;28;45218;-66
2022/05/05 08:04:18;;;;;;;;;27.00;23.25;;;;;15.95;60.84;101998.03;5061916;28;45528;-66
2022/05/05 08:06:44;;;;;;;;;29.50;23.25;;;;;16.01;60.66;102010.97;5061517;28;45339;-67
2022/05/05 08:09:11;;;;;;;;;27.50;23.75;;;;;16.08;60.67;102003.47;5061247;28;45773;-67
2022/05/05 08:11:37;;;;;;;;;26.75;22.50;;;;;16.22;60.51;102006.13;5061452;28;45354;-67
2022/05/05 08:14:04;;;;;;;;;29.25;22.75;;;;;16.37;60.33;102009.63;5061190;28;45346;-67
2022/05/05 08:16:30;;;;;;;;;27.25;24.50;;;;;16.51;59.97;102009.59;5060581;28;45205;-69
2022/05/05 08:18:55;;;;;;;;;26.25;24.50;;;;;16.64;59.85;102002.53;5061420;28;45311;-68
2022/05/05 08:21:21;;;;;;;;;19.50;18.75;;;;;16.73;59.49;102014.41;5061492;28;45169;-67
2022/05/05 08:23:46;;;;;;;;;30.75;22.50;;;;;16.78;58.73;102012.31;5060153;28;45202;-68
2022/05/05 08:28:56;;;;;;;;;25.50;20.00;;;;;16.90;59.07;102011.50;5060860;28;45290;-68
2022/05/05 08:31:22;;;;;;;;;25.00;21.00;;;;;16.99;58.95;102010.06;5061514;28;45161;-68
2022/05/05 08:33:47;;;;;;;;;19.25;19.00;;;;;17.02;57.94;102018.69;5061188;28;45297;-68
2022/05/05 08:36:13;;;;;;;;;21.50;17.00;;;;;17.02;57.85;102012.50;5061462;28;45253;-68
2022/05/05 08:38:38;;;;;;;;;19.25;18.50;;;;;17.10;57.66;102012.84;5060759;28;45625;-68
2022/05/05 08:41:10;;;;;;;;;21.25;20.25;;;;;17.18;57.35;102021.19;5060982;28;45359;-67
2022/05/05 08:43:36;;;;;;;;;25.00;18.25;;;;;17.21;57.56;102017.47;5060578;28;45219;-67
2022/05/05 08:46:03;;;;;;;;;21.50;18.25;;;;;17.29;57.59;102018.66;5061037;28;45289;-67
2022/05/05 08:48:32;;;;;;;;;24.25;21.00;;;;;17.37;57.35;102015.47;5060395;28;46156;-67
2022/05/05 08:51:00;;;;;;;;;16.75;14.50;;;;;17.46;57.01;102022.00;5060896;28;45330;-67
2022/05/05 08:53:35;;;;;;;;;21.75;18.50;;;;;17.56;57.25;102015.09;5060396;28;45492;-67
2022/05/05 08:56:03;;;;;;;;;20.50;14.75;;;;;17.64;57.07;102019.91;5060938;28;45429;-67
2022/05/05 08:58:29;;;;;;;;;18.25;13.25;;;;;17.75;56.31;102015.56;5060326;28;45344;-68
2022/05/05 09:00:55;;;;;;;;;12.75;12.00;;;;;17.83;55.93;102033.69;5059567;28;45330;-67
2022/05/05 09:03:21;;;;;;;;;16.75;15.75;;;;;17.85;55.69;102032.63;5060648;28;45382;-68
2022/05/05 09:05:48;;;;;;;;;18.75;13.50;;;;;17.83;54.96;102031.00;5061074;28;45464;-68
2022/05/05 09:08:25;;;;;;;;;16.50;12.25;;;;;17.84;55.41;102033.56;5060334;28;46333;-68
2022/05/05 09:11:02;;;;;;;;;14.75;11.75;;;;;17.88;55.06;102028.91;5060549;28;45244;-69
2022/05/05 09:13:36;;;;;;;;;12.75;11.50;;;;;17.91;54.53;102031.34;5058964;28;45255;-66
2022/05/05 09:16:03;;;;;;;;;13.50;13.50;;;;;18.01;55.06;102028.88;5060614;28;45457;-67
2022/05/05 09:18:32;;;;;;;;;16.50;13.00;;;;;18.11;54.50;102027.28;5060586;28;45567;-67
2022/05/05 09:21:06;;;;;;;;;14.75;14.00;;;;;18.31;54.32;102028.53;5060434;28;45267;-67
2022/05/05 09:23:36;;;;;;;;;11.25;11.25;;;;;18.47;53.40;102023.78;5060714;28;45313;-67
2022/05/05 09:26:08;;;;;;;;;15.75;12.25;;;;;18.52;53.83;102023.47;5060561;28;45359;-67
2022/05/05 09:28:38;;;;;;;;;15.50;11.50;;;;;18.52;53.09;102019.00;5060218;28;45947;-68
2022/05/05 09:31:08;;;;;;;;;11.50;9.75;;;;;18.57;52.94;102024.84;5060235;28;45215;-67
2022/05/05 09:33:34;;;;;;;;;9.50;9.50;;;;;18.62;52.66;102029.84;5060534;28;45494;-68
2022/05/05 09:36:02;;;;;;;;;8.50;7.50;;;;;18.73;52.49;102024.63;5059277;28;45639;-67
2022/05/05 09:38:50;;;;;;;;;10.50;9.00;;;;;18.74;51.45;102020.13;5060249;28;46069;-67
2022/05/05 09:41:16;;;;;;;;;6.25;5.25;;;;;18.65;50.65;102030.53;5060410;28;45266;-68
2022/05/05 09:43:42;;;;;;;;;5.25;5.00;;;;;18.50;50.36;102028.94;5058852;28;45348;-67
2022/05/05 09:46:27;;;;;;;;;9.50;7.00;;;;;18.37;50.58;102028.94;5060370;28;45488;-67
2022/05/05 09:49:03;;;;;;;;;13.50;10.00;;;;;18.33;50.37;102026.63;5059377;28;46311;-67
2022/05/05 09:51:29;;;;;;;;;7.75;7.75;;;;;18.45;50.27;102028.41;5060077;28;45428;-67
2022/05/05 09:59:40;;;;;;;;;7.50;5.75;;;;;18.81;50.38;102016.91;5060464;28;45689;-67
2022/05/05 10:02:17;;;;;;;;;7.75;7.75;;;;;18.92;50.96;102016.09;5063371;28;45326;-67
2022/05/05 10:04:51;;;;;;;;;12.50;10.50;;;;;18.97;50.89;102016.63;5062167;28;45390;-68
2022/05/05 10:07:20;;;;;;;;;5.75;4.75;;;;;19.15;49.58;102020.59;5063624;28;45458;-67
2022/05/05 10:09:48;;;;;;;;;9.50;8.00;;;;;19.18;49.19;102023.00;5063255;28;45259;-69
2022/05/05 10:12:14;;;;;;;;;6.50;6.50;;;;;19.08;49.48;102021.16;5063243;28;45206;-67
2022/05/05 10:14:40;;;;;;;;;7.00;7.00;;;;;18.92;49.10;102029.44;5062979;28;45394;-67
2022/05/05 10:17:07;;;;;;;;;17.25;14.50;;;;;18.78;48.83;102029.63;5063391;28;45330;-68
2022/05/05 10:19:33;;;;;;;;;35.50;29.75;;;;;18.66;49.08;102029.56;5062960;28;45362;-66
2022/05/05 10:22:09;;;;;;;;;24.00;22.50;;;;;18.58;48.73;102020.38;5045149;28;45399;-68
2022/05/05 10:24:43;;;;;;;;;37.50;31.75;;;;;18.56;48.90;102025.78;5061372;28;45318;-67
2022/05/05 10:27:10;;;;;;;;;18.50;12.75;;;;;18.62;49.31;102027.19;5063087;28;45361;-67
2022/05/05 10:29:36;;;;;;;;;11.00;8.00;;;;;18.71;49.07;102023.00;5062776;28;45377;-68
2022/05/05 10:32:11;;;;;;;;;7.75;6.75;;;;;18.69;48.64;102036.47;5062743;28;45311;-68
2022/05/05 10:34:45;;;;;;;;;12.00;11.25;;;;;18.61;48.32;102033.47;5061666;28;45276;-68
2022/05/05 10:37:18;;;;;;;;;6.75;4.50;;;;;18.54;48.86;102027.72;5062921;28;45260;-68
2022/05/05 10:40:01;;;;;;;;;11.00;8.25;;;;;18.52;48.94;102032.34;5062776;28;45922;-68
2022/05/05 10:42:29;;;;;;;;;4.00;4.00;;;;;18.44;48.79;102024.03;5062797;28;45313;-68
2022/05/05 10:45:12;;;;;;;;;5.50;5.50;;;;;18.41;48.74;102032.25;5062720;28;45261;-68
2022/05/05 10:47:55;;;;;;;;;5.75;5.50;;;;;18.44;49.31;102032.03;5062931;28;45482;-66
2022/05/05 10:51:02;;;;;;;;;6.25;5.25;;;;;18.49;48.88;102034.38;5062678;28;45327;-66
2022/05/05 10:53:42;;;;;;;;;6.00;5.75;;;;;18.56;49.00;102024.94;5062545;28;45399;-67
2022/05/05 10:56:20;;;;;;;;;8.00;6.50;;;;;18.66;48.80;102018.03;5062702;28;45299;-67
2022/05/05 10:59:15;;;;;;;;;6.00;6.00;;;;;18.74;48.70;102023.66;5062549;28;45320;-67
2022/05/05 11:01:46;;;;;;;;;6.25;6.25;;;;;18.80;48.75;102020.53;5046429;28;45351;-67
2022/05/05 11:04:12;;;;;;;;;7.75;5.25;;;;;18.82;47.73;102018.59;5062692;28;45231;-67
2022/05/05 11:06:38;;;;;;;;;6.00;4.00;;;;;18.79;47.83;102016.16;5062568;28;45274;-67
2022/05/05 11:09:05;;;;;;;;;5.00;4.00;;;;;18.75;47.78;102012.00;5062388;28;45533;-67
2022/05/05 11:11:45;;;;;;;;;6.00;5.00;;;;;18.71;47.54;102015.84;5062183;28;45396;-67
2022/05/05 11:23:47;;;;;;;;;7.75;4.50;;;;;18.58;48.08;102018.56;5062347;28;45736;-67
2022/05/05 11:26:20;;;;;;;;;7.25;4.50;;;;;18.56;47.81;102017.78;5062151;28;45351;-67
2022/05/05 11:28:48;;;;;;;;;6.50;5.75;;;;;18.56;47.92;102019.59;5061640;28;45291;-67
2022/05/05 11:31:20;;;;;;;;;4.50;4.50;;;;;18.55;47.73;102021.44;5062150;28;45243;-67
2022/05/05 11:34:03;;;;;;;;;5.75;4.00;;;;;18.51;47.13;102011.94;5061817;28;45278;-66
2022/05/05 11:36:34;;;;;;;;;4.50;3.50;;;;;18.49;47.47;102016.56;5062175;28;45303;-66
2022/05/05 11:38:59;;;;;;;;;7.75;4.00;;;;;18.49;47.03;102010.38;5062021;28;45435;-67
2022/05/05 11:41:26;;;;;;;;;10.00;5.00;;;;;18.46;47.29;102022.09;5061941;28;45500;-67
2022/05/05 11:46:38;;;;;;;;;7.50;4.00;;;;;18.47;47.08;102022.94;5061941;28;45334;-66
2022/05/05 11:49:03;;;;;;;;;5.75;3.50;;;;;18.47;46.77;102021.13;5061853;28;45566;-67
2022/05/05 11:51:31;;;;;;;;;3.00;3.00;;;;;18.51;47.12;102017.28;5061670;28;45310;-67